Capixaba, Brazil
Current Conditions -  °F | °C
As of 1:00 AM on Saturday 25 Oct 2014 (Local Time) from SBRB Reporting Station
Broken Clouds Broken Clouds  
Wind Chill: 73°   Ceiling: 10000
Heat Index: 73°   Visibility: 6mi
Dew Point: 72°   Wind: 3mph
Humidity: 94%   Direction: 190°S
Pressure: 29.85"   Gusts: NA
Location:  10.57°S, 67.68°W
Report Text: SBRB 250500Z 19003KT 9999 SCT015 BKN100 23/22 Q1011
Loading
Personal Weather Stations






























Interactive Weather Map
Tropical Storm Tracking
New forecast layout! Learn more

10-Day Weather Forecast

Advertisements
Track Severe Weather on mobile